Ruth, Nevada
Current Conditions -  °F | °C
As of 11:53 PM on Wednesday 26 Nov 2014 (Local Time) from KELY Reporting Station
Clear Clear  
Wind Chill: -9°   Ceiling: Unl
Heat Index: -3°   Visibility: 10mi
Dew Point: -10°   Wind: 13mph
Humidity: 58%   Direction: 170°S
Pressure: 30.45"   Gusts: NA
Location:  39.28°N, 114.99°W
Report Text: KELY 270753Z AUTO 17011KT 10SM CLR M03/M10 A3045 RMK AO2 SLP284 T10281100 401671072
Loading
Personal Weather Stations






























Interactive Weather Map New forecast layout! Learn more

10-Day Weather Forecast

Advertisements
Track Severe Weather on mobile